sensor_id;sensor_type;location;lat;lon;timestamp;P1;durP1;ratioP1;P2;durP2;ratioP2
60502;SDS011;51448;51.660;5.824;2024-01-16T00:00:54;18.15;;;7.10;;
60502;SDS011;51448;51.660;5.824;2024-01-16T00:03:22;10.93;;;6.28;;
60502;SDS011;51448;51.660;5.824;2024-01-16T00:05:50;11.23;;;6.57;;
60502;SDS011;51448;51.660;5.824;2024-01-16T00:08:35;14.00;;;6.47;;
60502;SDS011;51448;51.660;5.824;2024-01-16T00:11:39;14.63;;;6.13;;
60502;SDS011;51448;51.660;5.824;2024-01-16T00:14:22;10.23;;;5.60;;
60502;SDS011;51448;51.660;5.824;2024-01-16T00:16:50;11.05;;;5.68;;
60502;SDS011;51448;51.660;5.824;2024-01-16T00:19:17;12.63;;;5.45;;
60502;SDS011;51448;51.660;5.824;2024-01-16T00:21:45;11.23;;;6.40;;
60502;SDS011;51448;51.660;5.824;2024-01-16T00:24:14;12.07;;;5.45;;
60502;SDS011;51448;51.660;5.824;2024-01-16T00:26:42;14.48;;;5.95;;
60502;SDS011;51448;51.660;5.824;2024-01-16T00:29:10;10.13;;;6.60;;
60502;SDS011;51448;51.660;5.824;2024-01-16T00:31:39;8.65;;;5.65;;
60502;SDS011;51448;51.660;5.824;2024-01-16T00:34:07;12.10;;;5.78;;
60502;SDS011;51448;51.660;5.824;2024-01-16T00:36:35;11.50;;;6.25;;
60502;SDS011;51448;51.660;5.824;2024-01-16T00:39:02;10.82;;;5.85;;
60502;SDS011;51448;51.660;5.824;2024-01-16T00:41:30;11.02;;;6.28;;
60502;SDS011;51448;51.660;5.824;2024-01-16T00:43:58;11.30;;;6.07;;
60502;SDS011;51448;51.660;5.824;2024-01-16T00:46:25;9.80;;;5.25;;
60502;SDS011;51448;51.660;5.824;2024-01-16T00:48:53;9.68;;;5.30;;
60502;SDS011;51448;51.660;5.824;2024-01-16T00:51:20;10.35;;;4.78;;
60502;SDS011;51448;51.660;5.824;2024-01-16T00:53:48;11.02;;;5.65;;
60502;SDS011;51448;51.660;5.824;2024-01-16T00:56:16;10.75;;;5.50;;
60502;SDS011;51448;51.660;5.824;2024-01-16T00:58:43;11.35;;;5.00;;
60502;SDS011;51448;51.660;5.824;2024-01-16T01:01:11;9.38;;;5.05;;
60502;SDS011;51448;51.660;5.824;2024-01-16T01:03:39;10.45;;;4.90;;
60502;SDS011;51448;51.660;5.824;2024-01-16T01:06:06;6.55;;;4.70;;
60502;SDS011;51448;51.660;5.824;2024-01-16T01:08:34;7.78;;;4.40;;
60502;SDS011;51448;51.660;5.824;2024-01-16T01:11:02;8.68;;;5.05;;
60502;SDS011;51448;51.660;5.824;2024-01-16T01:13:30;8.45;;;4.57;;
60502;SDS011;51448;51.660;5.824;2024-01-16T01:15:58;8.20;;;4.63;;
60502;SDS011;51448;51.660;5.824;2024-01-16T01:18:25;8.98;;;4.40;;
60502;SDS011;51448;51.660;5.824;2024-01-16T01:20:53;8.02;;;4.63;;
60502;SDS011;51448;51.660;5.824;2024-01-16T01:23:21;7.70;;;5.13;;
60502;SDS011;51448;51.660;5.824;2024-01-16T01:25:48;11.48;;;4.75;;
60502;SDS011;51448;51.660;5.824;2024-01-16T01:28:16;9.60;;;5.10;;
60502;SDS011;51448;51.660;5.824;2024-01-16T01:30:44;10.55;;;4.85;;
60502;SDS011;51448;51.660;5.824;2024-01-16T01:33:11;9.38;;;5.32;;
60502;SDS011;51448;51.660;5.824;2024-01-16T01:35:39;6.32;;;4.50;;
60502;SDS011;51448;51.660;5.824;2024-01-16T01:38:07;8.15;;;4.38;;
60502;SDS011;51448;51.660;5.824;2024-01-16T01:40:35;7.38;;;3.97;;
60502;SDS011;51448;51.660;5.824;2024-01-16T01:43:22;6.60;;;4.25;;
60502;SDS011;51448;51.660;5.824;2024-01-16T01:46:12;7.93;;;4.38;;
60502;SDS011;51448;51.660;5.824;2024-01-16T01:48:45;11.68;;;4.90;;
60502;SDS011;51448;51.660;5.824;2024-01-16T01:51:17;7.85;;;3.78;;
60502;SDS011;51448;51.660;5.824;2024-01-16T01:53:46;9.50;;;4.47;;
60502;SDS011;51448;51.660;5.824;2024-01-16T01:56:18;11.93;;;5.22;;
60502;SDS011;51448;51.660;5.824;2024-01-16T01:58:49;10.68;;;4.60;;
60502;SDS011;51448;51.660;5.824;2024-01-16T02:01:43;7.90;;;4.55;;
60502;SDS011;51448;51.660;5.824;2024-01-16T02:04:17;14.50;;;5.07;;
60502;SDS011;51448;51.660;5.824;2024-01-16T02:06:46;11.50;;;5.07;;
60502;SDS011;51448;51.660;5.824;2024-01-16T02:09:15;11.52;;;5.00;;
60502;SDS011;51448;51.660;5.824;2024-01-16T02:11:43;12.07;;;5.10;;
60502;SDS011;51448;51.660;5.824;2024-01-16T02:14:10;12.27;;;5.53;;
60502;SDS011;51448;51.660;5.824;2024-01-16T02:16:39;10.50;;;5.18;;
60502;SDS011;51448;51.660;5.824;2024-01-16T02:19:08;11.23;;;5.10;;
60502;SDS011;51448;51.660;5.824;2024-01-16T02:21:37;11.25;;;5.43;;
60502;SDS011;51448;51.660;5.824;2024-01-16T02:24:09;13.73;;;5.28;;
60502;SDS011;51448;51.660;5.824;2024-01-16T02:26:38;12.45;;;6.57;;
60502;SDS011;51448;51.660;5.824;2024-01-16T02:29:06;11.27;;;4.93;;
60502;SDS011;51448;51.660;5.824;2024-01-16T02:31:34;16.58;;;6.25;;
60502;SDS011;51448;51.660;5.824;2024-01-16T02:34:02;12.65;;;6.13;;
60502;SDS011;51448;51.660;5.824;2024-01-16T02:36:33;11.40;;;5.95;;
60502;SDS011;51448;51.660;5.824;2024-01-16T02:39:00;9.07;;;5.80;;
60502;SDS011;51448;51.660;5.824;2024-01-16T02:41:28;8.35;;;6.05;;
60502;SDS011;51448;51.660;5.824;2024-01-16T02:43:56;11.40;;;6.18;;
60502;SDS011;51448;51.660;5.824;2024-01-16T02:46:23;12.38;;;5.57;;
60502;SDS011;51448;51.660;5.824;2024-01-16T02:48:51;10.15;;;5.47;;
60502;SDS011;51448;51.660;5.824;2024-01-16T02:51:19;15.15;;;6.00;;
60502;SDS011;51448;51.660;5.824;2024-01-16T02:53:46;12.70;;;5.78;;
60502;SDS011;51448;51.660;5.824;2024-01-16T02:56:14;8.65;;;4.60;;
60502;SDS011;51448;51.660;5.824;2024-01-16T02:58:41;9.40;;;4.50;;
60502;SDS011;51448;51.660;5.824;2024-01-16T03:01:09;11.57;;;4.35;;
60502;SDS011;51448;51.660;5.824;2024-01-16T03:03:36;14.32;;;6.10;;
60502;SDS011;51448;51.660;5.824;2024-01-16T03:06:04;8.70;;;4.05;;
60502;SDS011;51448;51.660;5.824;2024-01-16T03:08:32;9.50;;;4.13;;
60502;SDS011;51448;51.660;5.824;2024-01-16T03:11:00;10.60;;;3.88;;
60502;SDS011;51448;51.660;5.824;2024-01-16T03:13:27;11.38;;;4.25;;
60502;SDS011;51448;51.660;5.824;2024-01-16T03:15:55;9.50;;;4.07;;
60502;SDS011;51448;51.660;5.824;2024-01-16T03:18:22;10.68;;;4.95;;
60502;SDS011;51448;51.660;5.824;2024-01-16T03:20:50;9.45;;;3.13;;
60502;SDS011;51448;51.660;5.824;2024-01-16T03:23:18;8.98;;;4.43;;
60502;SDS011;51448;51.660;5.824;2024-01-16T03:25:47;7.10;;;2.58;;
60502;SDS011;51448;51.660;5.824;2024-01-16T03:28:14;11.98;;;4.20;;
60502;SDS011;51448;51.660;5.824;2024-01-16T03:30:41;13.93;;;3.78;;
60502;SDS011;51448;51.660;5.824;2024-01-16T03:33:09;7.55;;;2.65;;
60502;SDS011;51448;51.660;5.824;2024-01-16T03:35:37;6.85;;;2.75;;
60502;SDS011;51448;51.660;5.824;2024-01-16T03:38:05;7.13;;;2.70;;
60502;SDS011;51448;51.660;5.824;2024-01-16T03:40:33;10.70;;;2.97;;
60502;SDS011;51448;51.660;5.824;2024-01-16T03:43:01;4.90;;;3.03;;
60502;SDS011;51448;51.660;5.824;2024-01-16T03:45:29;5.00;;;2.45;;
60502;SDS011;51448;51.660;5.824;2024-01-16T03:47:58;14.27;;;3.70;;
60502;SDS011;51448;51.660;5.824;2024-01-16T03:50:25;6.80;;;3.00;;
60502;SDS011;51448;51.660;5.824;2024-01-16T03:52:53;4.70;;;2.70;;
60502;SDS011;51448;51.660;5.824;2024-01-16T03:55:22;7.20;;;3.42;;
60502;SDS011;51448;51.660;5.824;2024-01-16T03:57:49;6.05;;;3.13;;
60502;SDS011;51448;51.660;5.824;2024-01-16T04:00:18;11.13;;;2.70;;
60502;SDS011;51448;51.660;5.824;2024-01-16T04:02:45;7.63;;;2.75;;
60502;SDS011;51448;51.660;5.824;2024-01-16T04:05:13;7.50;;;2.40;;
60502;SDS011;51448;51.660;5.824;2024-01-16T04:07:41;6.68;;;2.78;;
60502;SDS011;51448;51.660;5.824;2024-01-16T04:10:08;5.78;;;2.38;;
60502;SDS011;51448;51.660;5.824;2024-01-16T04:12:36;4.07;;;2.20;;
60502;SDS011;51448;51.660;5.824;2024-01-16T04:15:04;7.70;;;2.90;;
60502;SDS011;51448;51.660;5.824;2024-01-16T04:17:32;3.58;;;2.05;;
60502;SDS011;51448;51.660;5.824;2024-01-16T04:19:59;4.40;;;2.00;;
60502;SDS011;51448;51.660;5.824;2024-01-16T04:22:27;6.13;;;2.00;;
60502;SDS011;51448;51.660;5.824;2024-01-16T04:24:54;4.82;;;1.80;;
60502;SDS011;51448;51.660;5.824;2024-01-16T04:27:22;7.82;;;2.05;;
60502;SDS011;51448;51.660;5.824;2024-01-16T04:29:49;4.80;;;2.72;;
60502;SDS011;51448;51.660;5.824;2024-01-16T04:32:17;11.02;;;3.17;;
60502;SDS011;51448;51.660;5.824;2024-01-16T04:34:45;6.00;;;2.97;;
60502;SDS011;51448;51.660;5.824;2024-01-16T04:37:12;6.45;;;2.70;;
60502;SDS011;51448;51.660;5.824;2024-01-16T04:39:40;8.60;;;1.90;;
60502;SDS011;51448;51.660;5.824;2024-01-16T04:42:10;7.93;;;2.95;;
60502;SDS011;51448;51.660;5.824;2024-01-16T04:44:38;8.10;;;2.42;;
60502;SDS011;51448;51.660;5.824;2024-01-16T04:47:06;6.78;;;2.67;;
60502;SDS011;51448;51.660;5.824;2024-01-16T04:49:34;6.88;;;3.20;;
60502;SDS011;51448;51.660;5.824;2024-01-16T04:52:01;7.68;;;3.53;;
60502;SDS011;51448;51.660;5.824;2024-01-16T04:54:30;6.95;;;3.63;;
60502;SDS011;51448;51.660;5.824;2024-01-16T04:56:57;6.65;;;4.30;;
60502;SDS011;51448;51.660;5.824;2024-01-16T04:59:25;8.80;;;5.38;;
60502;SDS011;51448;51.660;5.824;2024-01-16T05:01:52;11.82;;;5.68;;
60502;SDS011;51448;51.660;5.824;2024-01-16T05:04:20;6.20;;;4.85;;
60502;SDS011;51448;51.660;5.824;2024-01-16T05:06:51;10.63;;;5.43;;
60502;SDS011;51448;51.660;5.824;2024-01-16T05:09:19;15.65;;;5.55;;
60502;SDS011;51448;51.660;5.824;2024-01-16T05:11:46;17.30;;;6.43;;
60502;SDS011;51448;51.660;5.824;2024-01-16T05:14:14;15.48;;;6.32;;
60502;SDS011;51448;51.660;5.824;2024-01-16T05:16:42;18.25;;;7.72;;
60502;SDS011;51448;51.660;5.824;2024-01-16T05:19:09;19.15;;;7.28;;
60502;SDS011;51448;51.660;5.824;2024-01-16T05:21:37;16.10;;;8.85;;
60502;SDS011;51448;51.660;5.824;2024-01-16T05:24:07;15.60;;;8.27;;
60502;SDS011;51448;51.660;5.824;2024-01-16T05:26:35;17.10;;;7.85;;
60502;SDS011;51448;51.660;5.824;2024-01-16T05:29:03;19.73;;;9.38;;
60502;SDS011;51448;51.660;5.824;2024-01-16T05:31:30;19.95;;;10.20;;
60502;SDS011;51448;51.660;5.824;2024-01-16T05:33:58;18.67;;;9.75;;
60502;SDS011;51448;51.660;5.824;2024-01-16T05:36:26;16.92;;;8.93;;
60502;SDS011;51448;51.660;5.824;2024-01-16T05:38:54;16.33;;;9.15;;
60502;SDS011;51448;51.660;5.824;2024-01-16T05:41:21;17.60;;;9.95;;
60502;SDS011;51448;51.660;5.824;2024-01-16T05:43:49;16.85;;;9.48;;
60502;SDS011;51448;51.660;5.824;2024-01-16T05:46:17;15.38;;;8.90;;
60502;SDS011;51448;51.660;5.824;2024-01-16T05:48:45;18.63;;;9.43;;
60502;SDS011;51448;51.660;5.824;2024-01-16T05:51:13;15.10;;;9.43;;
60502;SDS011;51448;51.660;5.824;2024-01-16T05:53:41;22.35;;;9.93;;
60502;SDS011;51448;51.660;5.824;2024-01-16T05:56:09;16.85;;;9.55;;
60502;SDS011;51448;51.660;5.824;2024-01-16T05:58:36;17.73;;;9.07;;
60502;SDS011;51448;51.660;5.824;2024-01-16T06:01:06;18.02;;;9.73;;
60502;SDS011;51448;51.660;5.824;2024-01-16T06:03:33;22.42;;;10.07;;
60502;SDS011;51448;51.660;5.824;2024-01-16T06:06:01;17.50;;;9.40;;
60502;SDS011;51448;51.660;5.824;2024-01-16T06:08:29;18.77;;;9.82;;
60502;SDS011;51448;51.660;5.824;2024-01-16T06:10:57;15.85;;;9.40;;
60502;SDS011;51448;51.660;5.824;2024-01-16T06:13:25;17.08;;;9.23;;
60502;SDS011;51448;51.660;5.824;2024-01-16T06:15:52;17.90;;;9.43;;
60502;SDS011;51448;51.660;5.824;2024-01-16T06:18:20;18.70;;;10.05;;
60502;SDS011;51448;51.660;5.824;2024-01-16T06:20:47;16.73;;;9.63;;
60502;SDS011;51448;51.660;5.824;2024-01-16T06:23:15;21.65;;;10.77;;
60502;SDS011;51448;51.660;5.824;2024-01-16T06:25:43;21.33;;;10.75;;
60502;SDS011;51448;51.660;5.824;2024-01-16T06:28:10;15.65;;;9.07;;
60502;SDS011;51448;51.660;5.824;2024-01-16T06:30:38;21.33;;;10.43;;
60502;SDS011;51448;51.660;5.824;2024-01-16T06:33:06;17.45;;;9.35;;
60502;SDS011;51448;51.660;5.824;2024-01-16T06:35:34;21.15;;;9.90;;
60502;SDS011;51448;51.660;5.824;2024-01-16T06:38:06;17.52;;;9.68;;
60502;SDS011;51448;51.660;5.824;2024-01-16T06:40:33;20.50;;;8.52;;
60502;SDS011;51448;51.660;5.824;2024-01-16T06:43:01;21.98;;;10.15;;
60502;SDS011;51448;51.660;5.824;2024-01-16T06:45:28;18.42;;;9.75;;
60502;SDS011;51448;51.660;5.824;2024-01-16T06:47:56;17.83;;;9.35;;
60502;SDS011;51448;51.660;5.824;2024-01-16T06:50:24;16.55;;;7.80;;
60502;SDS011;51448;51.660;5.824;2024-01-16T06:52:52;19.42;;;7.82;;
60502;SDS011;51448;51.660;5.824;2024-01-16T06:55:19;17.17;;;8.60;;
60502;SDS011;51448;51.660;5.824;2024-01-16T06:57:49;18.70;;;7.72;;
60502;SDS011;51448;51.660;5.824;2024-01-16T07:00:17;15.90;;;9.98;;
60502;SDS011;51448;51.660;5.824;2024-01-16T07:02:45;18.33;;;6.97;;
60502;SDS011;51448;51.660;5.824;2024-01-16T07:05:13;16.30;;;7.30;;
60502;SDS011;51448;51.660;5.824;2024-01-16T07:07:40;11.82;;;6.40;;
60502;SDS011;51448;51.660;5.824;2024-01-16T07:10:08;13.23;;;7.60;;
60502;SDS011;51448;51.660;5.824;2024-01-16T07:12:40;15.13;;;7.53;;
60502;SDS011;51448;51.660;5.824;2024-01-16T07:15:08;14.57;;;6.97;;
60502;SDS011;51448;51.660;5.824;2024-01-16T07:17:36;15.45;;;7.15;;
60502;SDS011;51448;51.660;5.824;2024-01-16T07:20:03;12.60;;;6.57;;
60502;SDS011;51448;51.660;5.824;2024-01-16T07:22:31;16.73;;;6.50;;
60502;SDS011;51448;51.660;5.824;2024-01-16T07:24:59;12.60;;;5.90;;
60502;SDS011;51448;51.660;5.824;2024-01-16T07:27:27;16.08;;;6.32;;
60502;SDS011;51448;51.660;5.824;2024-01-16T07:29:55;17.15;;;6.38;;
60502;SDS011;51448;51.660;5.824;2024-01-16T07:32:24;15.00;;;6.00;;
60502;SDS011;51448;51.660;5.824;2024-01-16T07:34:51;13.98;;;6.28;;
60502;SDS011;51448;51.660;5.824;2024-01-16T07:37:19;11.75;;;5.65;;
60502;SDS011;51448;51.660;5.824;2024-01-16T07:39:47;15.13;;;5.60;;
60502;SDS011;51448;51.660;5.824;2024-01-16T07:42:15;10.80;;;5.90;;
60502;SDS011;51448;51.660;5.824;2024-01-16T07:44:45;16.85;;;5.45;;
60502;SDS011;51448;51.660;5.824;2024-01-16T07:47:18;15.80;;;6.35;;
60502;SDS011;51448;51.660;5.824;2024-01-16T07:49:46;12.35;;;5.43;;
60502;SDS011;51448;51.660;5.824;2024-01-16T07:52:14;12.65;;;5.63;;
60502;SDS011;51448;51.660;5.824;2024-01-16T07:54:42;8.80;;;5.80;;
60502;SDS011;51448;51.660;5.824;2024-01-16T07:57:10;12.77;;;5.32;;
60502;SDS011;51448;51.660;5.824;2024-01-16T07:59:39;12.55;;;5.22;;
60502;SDS011;51448;51.660;5.824;2024-01-16T08:02:09;10.95;;;5.72;;
60502;SDS011;51448;51.660;5.824;2024-01-16T08:04:36;12.43;;;4.95;;
60502;SDS011;51448;51.660;5.824;2024-01-16T08:07:04;11.60;;;4.65;;
60502;SDS011;51448;51.660;5.824;2024-01-16T08:09:31;10.77;;;4.22;;
60502;SDS011;51448;51.660;5.824;2024-01-16T08:11:59;11.35;;;5.70;;
60502;SDS011;51448;51.660;5.824;2024-01-16T08:14:28;13.27;;;5.15;;
60502;SDS011;51448;51.660;5.824;2024-01-16T08:16:56;11.82;;;5.03;;
60502;SDS011;51448;51.660;5.824;2024-01-16T08:19:24;15.73;;;5.18;;
60502;SDS011;51448;51.660;5.824;2024-01-16T08:21:51;13.18;;;5.53;;
60502;SDS011;51448;51.660;5.824;2024-01-16T08:24:19;8.23;;;4.53;;
60502;SDS011;51448;51.660;5.824;2024-01-16T08:26:46;17.15;;;5.68;;
60502;SDS011;51448;51.660;5.824;2024-01-16T08:29:14;9.98;;;4.82;;
60502;SDS011;51448;51.660;5.824;2024-01-16T08:31:42;8.48;;;4.70;;
60502;SDS011;51448;51.660;5.824;2024-01-16T08:34:09;9.68;;;4.60;;
60502;SDS011;51448;51.660;5.824;2024-01-16T08:36:37;10.55;;;4.78;;
60502;SDS011;51448;51.660;5.824;2024-01-16T08:39:04;19.30;;;5.20;;
60502;SDS011;51448;51.660;5.824;2024-01-16T08:41:33;7.80;;;4.55;;
60502;SDS011;51448;51.660;5.824;2024-01-16T08:44:00;11.52;;;4.30;;
60502;SDS011;51448;51.660;5.824;2024-01-16T08:46:28;9.63;;;4.80;;
60502;SDS011;51448;51.660;5.824;2024-01-16T08:48:55;12.07;;;5.07;;
60502;SDS011;51448;51.660;5.824;2024-01-16T08:51:23;8.65;;;4.07;;
60502;SDS011;51448;51.660;5.824;2024-01-16T08:53:53;10.85;;;4.32;;
60502;SDS011;51448;51.660;5.824;2024-01-16T08:56:20;9.20;;;4.68;;
60502;SDS011;51448;51.660;5.824;2024-01-16T08:58:48;15.60;;;5.43;;
60502;SDS011;51448;51.660;5.824;2024-01-16T09:01:15;12.10;;;4.53;;
60502;SDS011;51448;51.660;5.824;2024-01-16T09:03:43;13.35;;;5.40;;
60502;SDS011;51448;51.660;5.824;2024-01-16T09:06:11;6.65;;;3.90;;
60502;SDS011;51448;51.660;5.824;2024-01-16T09:08:39;15.90;;;5.28;;
60502;SDS011;51448;51.660;5.824;2024-01-16T09:11:06;8.57;;;3.85;;
60502;SDS011;51448;51.660;5.824;2024-01-16T09:13:34;12.88;;;4.30;;
60502;SDS011;51448;51.660;5.824;2024-01-16T09:16:02;9.90;;;4.13;;
60502;SDS011;51448;51.660;5.824;2024-01-16T09:18:29;7.60;;;3.60;;
60502;SDS011;51448;51.660;5.824;2024-01-16T09:20:57;17.27;;;5.43;;
60502;SDS011;51448;51.660;5.824;2024-01-16T09:23:25;12.75;;;3.97;;
60502;SDS011;51448;51.660;5.824;2024-01-16T09:25:52;11.95;;;4.22;;
60502;SDS011;51448;51.660;5.824;2024-01-16T09:28:20;10.30;;;3.70;;
60502;SDS011;51448;51.660;5.824;2024-01-16T09:30:47;9.52;;;4.47;;
60502;SDS011;51448;51.660;5.824;2024-01-16T09:33:15;10.02;;;4.30;;
60502;SDS011;51448;51.660;5.824;2024-01-16T09:35:44;13.43;;;4.63;;
60502;SDS011;51448;51.660;5.824;2024-01-16T09:38:11;12.95;;;4.43;;
60502;SDS011;51448;51.660;5.824;2024-01-16T09:40:39;6.22;;;4.07;;
60502;SDS011;51448;51.660;5.824;2024-01-16T09:43:07;16.60;;;5.18;;
60502;SDS011;51448;51.660;5.824;2024-01-16T09:45:37;10.90;;;4.45;;
60502;SDS011;51448;51.660;5.824;2024-01-16T09:48:06;10.18;;;4.95;;
60502;SDS011;51448;51.660;5.824;2024-01-16T09:50:35;11.23;;;4.85;;
60502;SDS011;51448;51.660;5.824;2024-01-16T09:53:03;10.80;;;4.22;;
60502;SDS011;51448;51.660;5.824;2024-01-16T09:55:31;9.40;;;3.83;;
60502;SDS011;51448;51.660;5.824;2024-01-16T09:57:59;10.80;;;5.20;;
60502;SDS011;51448;51.660;5.824;2024-01-16T10:00:27;7.75;;;4.63;;
60502;SDS011;51448;51.660;5.824;2024-01-16T10:02:55;8.77;;;3.85;;
60502;SDS011;51448;51.660;5.824;2024-01-16T10:05:26;11.77;;;4.43;;
60502;SDS011;51448;51.660;5.824;2024-01-16T10:07:54;9.93;;;4.40;;
60502;SDS011;51448;51.660;5.824;2024-01-16T10:10:22;8.65;;;4.40;;
60502;SDS011;51448;51.660;5.824;2024-01-16T10:13:00;12.82;;;3.92;;
60502;SDS011;51448;51.660;5.824;2024-01-16T10:15:28;15.40;;;4.22;;
60502;SDS011;51448;51.660;5.824;2024-01-16T10:17:58;10.90;;;4.15;;
60502;SDS011;51448;51.660;5.824;2024-01-16T10:20:33;11.80;;;4.68;;
60502;SDS011;51448;51.660;5.824;2024-01-16T10:23:02;9.98;;;4.57;;
60502;SDS011;51448;51.660;5.824;2024-01-16T10:25:30;9.90;;;3.88;;
60502;SDS011;51448;51.660;5.824;2024-01-16T10:28:02;11.18;;;4.53;;
60502;SDS011;51448;51.660;5.824;2024-01-16T10:30:32;8.30;;;4.13;;
60502;SDS011;51448;51.660;5.824;2024-01-16T10:33:15;8.35;;;4.10;;
60502;SDS011;51448;51.660;5.824;2024-01-16T10:35:44;11.40;;;4.07;;
60502;SDS011;51448;51.660;5.824;2024-01-16T10:38:19;9.93;;;4.55;;
60502;SDS011;51448;51.660;5.824;2024-01-16T10:43:41;7.35;;;4.00;;
60502;SDS011;51448;51.660;5.824;2024-01-16T10:49:04;10.43;;;4.80;;
60502;SDS011;51448;51.660;5.824;2024-01-16T10:51:31;10.10;;;4.07;;
60502;SDS011;51448;51.660;5.824;2024-01-16T10:54:00;11.95;;;4.05;;
60502;SDS011;51448;51.660;5.824;2024-01-16T10:56:33;8.38;;;3.55;;
60502;SDS011;51448;51.660;5.824;2024-01-16T11:02:29;12.65;;;4.70;;
60502;SDS011;51448;51.660;5.824;2024-01-16T11:05:28;12.80;;;5.65;;
60502;SDS011;51448;51.660;5.824;2024-01-16T11:07:59;9.27;;;4.80;;
60502;SDS011;51448;51.660;5.824;2024-01-16T11:10:33;8.80;;;5.30;;
60502;SDS011;51448;51.660;5.824;2024-01-16T11:13:08;10.88;;;4.50;;
60502;SDS011;51448;51.660;5.824;2024-01-16T11:15:41;9.88;;;5.35;;
60502;SDS011;51448;51.660;5.824;2024-01-16T11:18:09;9.00;;;4.50;;
60502;SDS011;51448;51.660;5.824;2024-01-16T11:20:41;8.73;;;5.05;;
60502;SDS011;51448;51.660;5.824;2024-01-16T11:23:13;10.35;;;4.53;;
60502;SDS011;51448;51.660;5.824;2024-01-16T11:25:41;10.20;;;5.18;;
60502;SDS011;51448;51.660;5.824;2024-01-16T11:28:10;9.77;;;4.43;;
60502;SDS011;51448;51.660;5.824;2024-01-16T11:30:42;8.77;;;4.47;;
60502;SDS011;51448;51.660;5.824;2024-01-16T11:33:46;4.82;;;3.53;;
60502;SDS011;51448;51.660;5.824;2024-01-16T11:36:36;17.25;;;5.63;;
60502;SDS011;51448;51.660;5.824;2024-01-16T11:39:24;12.70;;;4.70;;
60502;SDS011;51448;51.660;5.824;2024-01-16T11:41:54;10.10;;;4.43;;
60502;SDS011;51448;51.660;5.824;2024-01-16T11:47:22;8.85;;;4.50;;
60502;SDS011;51448;51.660;5.824;2024-01-16T11:49:51;8.25;;;4.68;;
60502;SDS011;51448;51.660;5.824;2024-01-16T11:52:40;9.82;;;5.35;;
60502;SDS011;51448;51.660;5.824;2024-01-16T11:58:07;11.88;;;5.07;;
60502;SDS011;51448;51.660;5.824;2024-01-16T12:01:12;8.52;;;4.57;;
60502;SDS011;51448;51.660;5.824;2024-01-16T12:03:40;7.45;;;4.38;;
60502;SDS011;51448;51.660;5.824;2024-01-16T12:06:08;9.90;;;6.15;;
60502;SDS011;51448;51.660;5.824;2024-01-16T12:08:36;11.82;;;5.40;;
60502;SDS011;51448;51.660;5.824;2024-01-16T12:11:04;11.90;;;4.68;;
60502;SDS011;51448;51.660;5.824;2024-01-16T12:13:32;13.80;;;5.13;;
60502;SDS011;51448;51.660;5.824;2024-01-16T12:16:00;11.25;;;4.50;;
60502;SDS011;51448;51.660;5.824;2024-01-16T12:18:31;13.32;;;5.03;;
60502;SDS011;51448;51.660;5.824;2024-01-16T12:21:10;8.52;;;4.60;;
60502;SDS011;51448;51.660;5.824;2024-01-16T12:23:39;7.65;;;4.70;;
60502;SDS011;51448;51.660;5.824;2024-01-16T12:26:19;13.05;;;4.57;;
60502;SDS011;51448;51.660;5.824;2024-01-16T12:28:52;9.10;;;4.75;;
60502;SDS011;51448;51.660;5.824;2024-01-16T12:31:27;8.40;;;4.40;;
60502;SDS011;51448;51.660;5.824;2024-01-16T12:34:08;10.10;;;5.00;;
60502;SDS011;51448;51.660;5.824;2024-01-16T12:36:37;6.40;;;4.28;;
60502;SDS011;51448;51.660;5.824;2024-01-16T12:39:05;10.90;;;5.32;;
60502;SDS011;51448;51.660;5.824;2024-01-16T12:41:42;9.98;;;5.28;;
60502;SDS011;51448;51.660;5.824;2024-01-16T12:44:15;12.75;;;5.47;;
60502;SDS011;51448;51.660;5.824;2024-01-16T12:46:54;10.55;;;5.00;;
60502;SDS011;51448;51.660;5.824;2024-01-16T12:49:23;9.85;;;4.57;;
60502;SDS011;51448;51.660;5.824;2024-01-16T12:52:13;6.20;;;3.60;;
60502;SDS011;51448;51.660;5.824;2024-01-16T12:55:00;8.13;;;4.50;;
60502;SDS011;51448;51.660;5.824;2024-01-16T12:57:31;11.68;;;4.93;;
60502;SDS011;51448;51.660;5.824;2024-01-16T12:59:59;8.68;;;4.00;;
60502;SDS011;51448;51.660;5.824;2024-01-16T13:02:29;11.38;;;4.05;;
60502;SDS011;51448;51.660;5.824;2024-01-16T13:04:58;9.65;;;4.32;;
60502;SDS011;51448;51.660;5.824;2024-01-16T13:07:29;9.13;;;4.40;;
60502;SDS011;51448;51.660;5.824;2024-01-16T13:10:10;10.40;;;4.35;;
60502;SDS011;51448;51.660;5.824;2024-01-16T13:12:40;9.57;;;5.10;;
60502;SDS011;51448;51.660;5.824;2024-01-16T13:15:08;6.90;;;4.40;;
60502;SDS011;51448;51.660;5.824;2024-01-16T13:17:38;7.25;;;3.78;;
60502;SDS011;51448;51.660;5.824;2024-01-16T13:20:06;7.47;;;4.10;;
60502;SDS011;51448;51.660;5.824;2024-01-16T13:22:37;8.50;;;4.35;;
60502;SDS011;51448;51.660;5.824;2024-01-16T13:25:13;8.60;;;3.92;;
60502;SDS011;51448;51.660;5.824;2024-01-16T13:27:41;7.38;;;3.50;;
60502;SDS011;51448;51.660;5.824;2024-01-16T13:30:08;11.07;;;4.38;;
60502;SDS011;51448;51.660;5.824;2024-01-16T13:32:37;8.07;;;3.92;;
60502;SDS011;51448;51.660;5.824;2024-01-16T13:35:05;6.85;;;3.55;;
60502;SDS011;51448;51.660;5.824;2024-01-16T13:37:36;8.95;;;3.88;;
60502;SDS011;51448;51.660;5.824;2024-01-16T13:40:05;7.22;;;4.45;;
60502;SDS011;51448;51.660;5.824;2024-01-16T13:42:38;9.43;;;3.42;;
60502;SDS011;51448;51.660;5.824;2024-01-16T13:45:06;7.22;;;3.60;;
60502;SDS011;51448;51.660;5.824;2024-01-16T13:47:36;9.00;;;4.38;;
60502;SDS011;51448;51.660;5.824;2024-01-16T13:50:08;8.15;;;3.65;;
60502;SDS011;51448;51.660;5.824;2024-01-16T13:52:36;5.35;;;3.20;;
60502;SDS011;51448;51.660;5.824;2024-01-16T13:55:04;11.48;;;4.38;;
60502;SDS011;51448;51.660;5.824;2024-01-16T13:57:33;8.40;;;3.60;;
60502;SDS011;51448;51.660;5.824;2024-01-16T14:00:04;13.82;;;4.05;;
60502;SDS011;51448;51.660;5.824;2024-01-16T14:02:44;8.32;;;3.55;;
60502;SDS011;51448;51.660;5.824;2024-01-16T14:05:17;13.25;;;4.80;;
60502;SDS011;51448;51.660;5.824;2024-01-16T14:07:48;5.07;;;3.55;;
60502;SDS011;51448;51.660;5.824;2024-01-16T14:10:19;6.90;;;3.85;;
60502;SDS011;51448;51.660;5.824;2024-01-16T14:12:48;9.13;;;4.10;;
60502;SDS011;51448;51.660;5.824;2024-01-16T14:15:19;9.20;;;3.28;;
60502;SDS011;51448;51.660;5.824;2024-01-16T14:17:52;7.28;;;3.40;;
60502;SDS011;51448;51.660;5.824;2024-01-16T14:20:23;6.72;;;3.72;;
60502;SDS011;51448;51.660;5.824;2024-01-16T14:22:55;9.98;;;3.50;;
60502;SDS011;51448;51.660;5.824;2024-01-16T14:25:24;6.05;;;3.60;;
60502;SDS011;51448;51.660;5.824;2024-01-16T14:27:55;8.82;;;4.32;;
60502;SDS011;51448;51.660;5.824;2024-01-16T14:30:32;7.68;;;4.43;;
60502;SDS011;51448;51.660;5.824;2024-01-16T14:33:01;6.15;;;3.30;;
60502;SDS011;51448;51.660;5.824;2024-01-16T14:35:30;7.78;;;5.68;;
60502;SDS011;51448;51.660;5.824;2024-01-16T14:37:57;11.88;;;4.30;;
60502;SDS011;51448;51.660;5.824;2024-01-16T14:40:25;9.60;;;4.38;;
60502;SDS011;51448;51.660;5.824;2024-01-16T14:42:53;7.18;;;3.83;;
60502;SDS011;51448;51.660;5.824;2024-01-16T14:45:23;9.98;;;4.28;;
60502;SDS011;51448;51.660;5.824;2024-01-16T14:47:52;14.07;;;4.22;;
60502;SDS011;51448;51.660;5.824;2024-01-16T14:50:23;13.75;;;4.32;;
60502;SDS011;51448;51.660;5.824;2024-01-16T14:52:52;10.02;;;4.88;;
60502;SDS011;51448;51.660;5.824;2024-01-16T14:55:20;8.02;;;4.78;;
60502;SDS011;51448;51.660;5.824;2024-01-16T14:57:48;7.93;;;4.50;;
60502;SDS011;51448;51.660;5.824;2024-01-16T15:00:27;7.53;;;3.60;;
60502;SDS011;51448;51.660;5.824;2024-01-16T15:02:55;8.23;;;4.38;;
60502;SDS011;51448;51.660;5.824;2024-01-16T15:05:24;6.50;;;3.92;;
60502;SDS011;51448;51.660;5.824;2024-01-16T15:07:52;8.40;;;4.93;;
60502;SDS011;51448;51.660;5.824;2024-01-16T15:10:20;8.15;;;5.05;;